Time;durP1;ratioP1;P1;durP2;ratioP2;P2;SDS_P1;SDS_P2;PMS_P1;PMS_P2;Temp;Humidity;BMP_temperature;BMP_pressure;BME280_temperature;BME280_humidity;BME280_pressure;Samples;Min_cycle;Max_cycle;Signal;HPM_P1;HPM_P2
2021/06/28 00:01:15;;;;;;;14.70;11.00;;;;;;;19.76;78.18;98327.00;5052182;28;20062;-59
2021/06/28 00:03:47;;;;;;;15.00;10.77;;;;;;;19.75;78.42;98325.44;5051236;28;20037;-59
2021/06/28 00:06:13;;;;;;;13.73;10.80;;;;;;;19.74;78.42;98313.13;5035204;28;20182;-59
2021/06/28 00:08:40;;;;;;;17.05;11.57;;;;;;;19.73;78.43;98317.69;5050548;28;20067;-59
2021/06/28 00:11:07;;;;;;;17.65;11.27;;;;;;;19.74;78.34;98316.59;5051525;28;20495;-59
2021/06/28 00:13:38;;;;;;;15.27;11.20;;;;;;;19.71;78.43;98309.16;5050322;28;20044;-58
2021/06/28 00:16:05;;;;;;;12.50;10.32;;;;;;;19.61;78.55;98287.97;5051706;28;20041;-57
2021/06/28 00:18:32;;;;;;;13.15;10.50;;;;;;;19.73;78.36;98306.13;5051361;28;20044;-58
2021/06/28 00:20:57;;;;;;;14.35;10.45;;;;;;;19.73;78.47;98303.44;5051582;28;20044;-59
2021/06/28 00:23:23;;;;;;;16.35;11.43;;;;;;;19.72;78.89;98307.25;5051508;28;20037;-60
2021/06/28 00:25:50;;;;;;;15.00;11.40;;;;;;;19.69;79.05;98305.22;5051953;28;20041;-59
2021/06/28 00:28:15;;;;;;;16.27;11.43;;;;;;;19.68;79.03;98314.41;5051551;28;20044;-60
2021/06/28 00:30:43;;;;;;;15.93;11.57;;;;;;;19.64;79.24;98322.28;5051880;28;20048;-59
2021/06/28 00:33:12;;;;;;;18.33;11.93;;;;;;;19.63;79.24;98323.41;5051450;28;20131;-59
2021/06/28 00:35:38;;;;;;;16.45;12.10;;;;;;;19.62;78.99;98321.03;5051651;28;20072;-60
2021/06/28 00:38:04;;;;;;;16.75;11.63;;;;;;;19.62;78.96;98331.78;5051498;28;20494;-58
2021/06/28 00:40:31;;;;;;;13.68;11.50;;;;;;;19.62;78.98;98334.47;5051791;28;20051;-59
2021/06/28 00:42:56;;;;;;;14.13;12.00;;;;;;;19.60;79.09;98337.47;5051112;28;20045;-60
2021/06/28 00:45:30;;;;;;;14.18;11.23;;;;;;;19.61;79.20;98360.56;5051669;28;20505;-59
2021/06/28 00:47:58;;;;;;;14.65;11.85;;;;;;;19.63;79.04;98377.16;5050976;28;20072;-60
2021/06/28 00:50:27;;;;;;;16.90;12.45;;;;;;;19.67;79.31;98382.72;5051662;28;20048;-58
2021/06/28 00:52:55;;;;;;;16.60;12.55;;;;;;;19.68;79.34;98387.00;5033513;28;20051;-59
2021/06/28 00:55:21;;;;;;;18.67;13.13;;;;;;;19.72;79.15;98396.00;5049691;28;20056;-60
2021/06/28 00:57:47;;;;;;;16.58;12.07;;;;;;;19.80;79.17;98397.06;5065312;28;20044;-59
2021/06/28 01:00:14;;;;;;;15.80;13.00;;;;;;;19.81;79.18;98380.59;5070026;28;20044;-59
2021/06/28 01:02:40;;;;;;;18.38;13.20;;;;;;;19.84;79.04;98379.19;5071117;28;20093;-60
2021/06/28 01:05:20;;;;;;;18.13;13.07;;;;;;;19.89;79.04;98390.53;5071423;28;20490;-60
2021/06/28 01:07:47;;;;;;;18.90;13.63;;;;;;;19.91;78.96;98393.72;5069999;28;20041;-59
2021/06/28 01:10:13;;;;;;;20.27;12.70;;;;;;;19.91;79.13;98374.06;5071209;28;20516;-59
2021/06/28 01:12:40;;;;;;;16.27;13.20;;;;;;;19.92;79.09;98364.91;5071209;28;20041;-61
2021/06/28 01:15:07;;;;;;;16.48;13.23;;;;;;;19.95;78.62;98367.72;5071236;28;20071;-58
2021/06/28 01:17:33;;;;;;;17.55;14.18;;;;;;;20.02;78.59;98367.22;5073576;28;20046;-60
2021/06/28 01:20:05;;;;;;;17.52;13.77;;;;;;;20.08;78.22;98357.84;5056911;28;20044;-60
2021/06/28 01:22:33;;;;;;;22.23;17.02;;;;;;;20.18;77.88;98356.72;5074757;28;20040;-59
2021/06/28 01:24:59;;;;;;;20.45;16.33;;;;;;;20.33;77.09;98358.81;5075392;28;20045;-60
2021/06/28 01:27:26;;;;;;;22.70;15.75;;;;;;;20.45;76.38;98360.81;5074819;28;20086;-60
2021/06/28 01:29:53;;;;;;;20.58;14.25;;;;;;;20.59;75.85;98364.06;5073677;28;20103;-59
2021/06/28 01:32:20;;;;;;;19.38;13.65;;;;;;;20.75;75.35;98366.16;5073608;28;20486;-60
2021/06/28 01:34:46;;;;;;;22.30;14.18;;;;;;;20.91;74.67;98356.34;5056589;28;20387;-60
2021/06/28 01:37:18;;;;;;;18.73;13.85;;;;;;;21.05;74.01;98331.81;5074645;28;20076;-60
2021/06/28 01:39:45;;;;;;;22.38;13.95;;;;;;;21.06;73.25;98296.47;5074792;28;20075;-60
2021/06/28 01:42:11;;;;;;;23.42;17.20;;;;;;;21.19;73.12;98318.84;5074905;28;20040;-60
2021/06/28 01:44:37;;;;;;;16.60;13.82;;;;;;;21.23;73.21;98333.19;5074521;28;20067;-59
2021/06/28 01:47:03;;;;;;;20.27;13.27;;;;;;;21.40;72.67;98329.56;5074373;28;20044;-60
2021/06/28 01:49:29;;;;;;;23.20;13.45;;;;;;;21.59;72.08;98314.75;5039725;28;20462;-60
2021/06/28 01:51:55;;;;;;;21.70;14.23;;;;;;;21.70;71.68;98286.22;5074440;28;20266;-59
2021/06/28 01:54:21;;;;;;;18.92;14.45;;;;;;;21.67;71.52;98255.31;5073894;28;20114;-58
2021/06/28 01:56:47;;;;;;;17.45;12.70;;;;;;;21.63;71.53;98254.44;5074387;28;20044;-60
2021/06/28 01:59:13;;;;;;;16.20;11.70;;;;;;;21.68;71.41;98246.13;5056154;28;20040;-59
2021/06/28 02:01:39;;;;;;;15.52;12.25;;;;;;;21.76;71.06;98266.78;5074181;28;20495;-60
2021/06/28 02:04:06;;;;;;;13.77;12.38;;;;;;;21.88;70.81;98281.38;5072833;28;20517;-60
2021/06/28 02:06:31;;;;;;;15.00;12.90;;;;;;;22.25;69.31;98276.75;5073983;28;20055;-59
2021/06/28 02:08:57;;;;;;;13.38;11.90;;;;;;;22.53;68.21;98267.88;5073932;28;20041;-60
2021/06/28 02:11:23;;;;;;;18.17;14.05;;;;;;;22.74;67.51;98254.97;5074094;28;20051;-60
2021/06/28 02:13:49;;;;;;;17.10;14.10;;;;;;;22.85;67.01;98245.22;5074351;28;20044;-58
2021/06/28 02:16:15;;;;;;;14.38;12.35;;;;;;;23.05;66.60;98234.53;5072603;28;20365;-59
2021/06/28 02:18:41;;;;;;;15.40;11.93;;;;;;;23.05;66.58;98235.31;5072774;28;20136;-61
2021/06/28 02:21:07;;;;;;;15.15;11.90;;;;;;;23.26;66.35;98242.41;5073903;28;20541;-60
2021/06/28 02:23:34;;;;;;;18.17;12.10;;;;;;;23.59;64.88;98250.16;5073780;28;20533;-60
2021/06/28 02:26:02;;;;;;;14.32;11.65;;;;;;;24.03;63.87;98249.97;5055958;28;20048;-59
2021/06/28 02:28:31;;;;;;;12.07;10.77;;;;;;;24.25;62.96;98241.19;5073422;28;20047;-60
2021/06/28 02:30:58;;;;;;;15.65;11.70;;;;;;;24.19;63.17;98215.53;5072653;28;20452;-60
2021/06/28 02:33:24;;;;;;;15.55;12.20;;;;;;;24.13;62.78;98227.00;5073649;28;20044;-60
2021/06/28 02:35:51;;;;;;;12.98;11.57;;;;;;;24.10;63.54;98225.00;5072490;28;20052;-60
2021/06/28 02:38:17;;;;;;;15.13;10.88;;;;;;;24.04;63.70;98221.78;5073591;28;20029;-60
2021/06/28 02:40:43;;;;;;;13.85;11.02;;;;;;;24.50;62.28;98218.47;5074044;28;20105;-60
2021/06/28 02:43:29;;;;;;;12.82;11.05;;;;;;;24.63;61.71;98217.16;5067776;28;20055;-59
2021/06/28 02:45:55;;;;;;;12.35;11.07;;;;;;;24.75;60.98;98210.81;5073391;28;20044;-60
2021/06/28 02:48:21;;;;;;;13.73;11.02;;;;;;;24.81;61.07;98217.50;5072171;28;20055;-60
2021/06/28 02:50:47;;;;;;;14.18;10.77;;;;;;;24.90;60.71;98215.31;5073870;28;20036;-60
2021/06/28 02:53:16;;;;;;;13.80;11.13;;;;;;;25.04;60.25;98202.03;5055592;28;20114;-61
2021/06/28 02:55:46;;;;;;;13.60;11.63;;;;;;;25.10;59.96;98197.84;5072949;28;20071;-60
2021/06/28 02:58:12;;;;;;;15.18;11.48;;;;;;;25.27;59.62;98212.09;5073398;28;20040;-60
2021/06/28 03:00:38;;;;;;;13.27;11.52;;;;;;;25.27;59.93;98217.53;5071736;28;20528;-60
2021/06/28 03:03:16;;;;;;;18.20;12.07;;;;;;;25.50;59.11;98217.47;5109203;27;20944;-59
2021/06/28 03:05:54;;;;;;;12.18;10.98;;;;;;;25.71;58.54;98212.38;5109208;27;20404;-60
2021/06/28 03:08:31;;;;;;;13.73;12.32;;;;;;;25.50;59.06;98210.13;5109229;27;20625;-58
2021/06/28 03:11:08;;;;;;;14.55;11.35;;;;;;;25.46;58.81;98203.84;5109066;27;20135;-59
2021/06/28 03:13:47;;;;;;;12.63;10.95;;;;;;;25.33;59.57;98210.66;5109208;27;20403;-61
2021/06/28 03:16:24;;;;;;;13.30;11.82;;;;;;;25.42;59.49;98207.69;5088971;27;20402;-61
2021/06/28 03:19:00;;;;;;;18.13;11.48;;;;;;;25.43;59.35;98207.31;5109176;27;20624;-61
2021/06/28 03:21:37;;;;;;;13.35;11.82;;;;;;;25.28;59.59;98202.81;5109109;27;20609;-60
2021/06/28 03:24:25;;;;;;;15.32;12.20;;;;;;;25.42;59.60;98216.59;5108991;27;20418;-61
2021/06/28 03:27:02;;;;;;;14.05;12.57;;;;;;;25.68;58.46;98207.69;5109152;27;20139;-61
2021/06/28 03:29:40;;;;;;;12.63;11.35;;;;;;;25.85;57.73;98202.88;5108762;27;20403;-59
2021/06/28 03:32:18;;;;;;;16.13;12.38;;;;;;;26.11;57.15;98210.19;5109481;27;20407;-60
2021/06/28 03:34:55;;;;;;;15.75;12.00;;;;;;;26.39;56.43;98204.31;5109091;27;20129;-60
2021/06/28 03:37:32;;;;;;;13.27;11.98;;;;;;;26.55;56.00;98194.03;5109188;27;20133;-59
2021/06/28 03:40:11;;;;;;;13.43;12.10;;;;;;;26.33;56.30;98192.22;5005476;28;20137;-60
2021/06/28 03:42:48;;;;;;;17.80;12.70;;;;;;;25.86;57.87;98169.94;5068649;27;20919;-61
2021/06/28 03:45:25;;;;;;;16.90;12.30;;;;;;;25.58;59.29;98168.38;5109193;27;20494;-60
2021/06/28 03:48:02;;;;;;;14.70;12.75;;;;;;;25.95;57.99;98169.66;5109098;27;20143;-60
2021/06/28 03:50:41;;;;;;;14.52;12.27;;;;;;;25.66;58.41;98152.97;5109198;27;20407;-61
2021/06/28 03:53:20;;;;;;;14.32;11.93;;;;;;;25.67;58.58;98151.81;5109081;27;20782;-59
2021/06/28 03:56:06;;;;;;;15.23;12.63;;;;;;;25.17;60.40;98142.97;5068557;27;20776;-60
2021/06/28 03:58:45;;;;;;;13.90;11.88;;;;;;;24.72;61.64;98132.94;5109054;27;20747;-59
2021/06/28 04:01:22;;;;;;;17.58;13.07;;;;;;;24.32;63.31;98126.00;5109117;27;20427;-60
2021/06/28 04:03:59;;;;;;;14.70;13.20;;;;;;;24.18;63.98;98130.03;5109130;27;20133;-60
2021/06/28 04:06:35;;;;;;;19.02;12.73;;;;;;;23.71;65.06;98127.56;5068694;28;20164;-60
2021/06/28 04:09:13;;;;;;;17.95;13.00;;;;;;;23.45;66.17;98117.31;5068410;28;20766;-60
2021/06/28 04:11:50;;;;;;;18.00;13.07;;;;;;;23.43;66.36;98117.66;5109238;27;20129;-60
2021/06/28 04:14:27;;;;;;;15.95;12.27;;;;;;;23.33;66.52;98107.41;5109132;27;20609;-60
2021/06/28 04:17:04;;;;;;;17.52;13.27;;;;;;;23.20;67.14;98101.31;5129701;27;20132;-59
2021/06/28 04:19:41;;;;;;;16.50;14.05;;;;;;;23.06;67.93;98090.97;5109206;27;20384;-59
2021/06/28 04:22:18;;;;;;;18.50;12.98;;;;;;;23.04;68.21;98087.06;5109123;27;20132;-59
2021/06/28 04:24:55;;;;;;;15.73;12.88;;;;;;;22.97;68.61;98093.09;5108856;27;20140;-59
2021/06/28 04:27:33;;;;;;;14.98;13.07;;;;;;;22.92;68.83;98084.44;5109232;27;20447;-59
2021/06/28 04:30:15;;;;;;;15.65;12.75;;;;;;;22.94;68.63;98101.06;5109085;27;20133;-61
2021/06/28 04:32:53;;;;;;;17.75;13.40;;;;;;;23.19;68.24;98085.44;5109158;27;20400;-59
2021/06/28 04:35:29;;;;;;;13.93;12.20;;;;;;;23.42;67.38;98061.22;5068613;28;20138;-59
2021/06/28 04:38:09;;;;;;;13.75;12.23;;;;;;;23.95;66.59;98059.59;5068647;28;20769;-59
2021/06/28 04:40:46;;;;;;;13.32;11.95;;;;;;;24.48;63.65;98061.72;5093392;27;1434095;-59
2021/06/28 04:43:22;;;;;;;16.98;12.95;;;;;;;24.47;63.60;98063.66;5109050;27;20411;-60
2021/06/28 04:45:59;;;;;;;18.55;12.70;;;;;;;24.41;63.64;98056.16;5109109;27;20155;-59
2021/06/28 04:48:35;;;;;;;13.77;11.95;;;;;;;24.65;63.49;98061.25;5109025;27;20137;-58
2021/06/28 04:51:12;;;;;;;14.20;12.65;;;;;;;24.79;62.78;98068.00;5088451;27;20138;-60
2021/06/28 04:53:49;;;;;;;15.38;12.77;;;;;;;24.94;62.07;98056.22;5109042;27;20620;-60
2021/06/28 04:56:25;;;;;;;14.35;12.35;;;;;;;25.31;61.91;98071.91;5109023;27;20137;-60
2021/06/28 04:59:02;;;;;;;16.17;13.05;;;;;;;25.49;60.61;98082.97;5108700;27;20592;-62
2021/06/28 05:01:41;;;;;;;16.25;13.43;;;;;;;25.45;60.87;98091.09;5073604;27;20391;-60
2021/06/28 05:04:19;;;;;;;19.75;13.40;;;;;;;25.80;59.53;98126.03;5109076;27;20178;-58
2021/06/28 05:07:08;;;;;;;14.38;12.88;;;;;;;25.74;59.41;98129.44;5108701;27;20411;-59
2021/06/28 05:09:46;;;;;;;16.75;12.73;;;;;;;26.13;59.48;98153.59;5107526;27;20128;-60
2021/06/28 05:12:23;;;;;;;14.63;13.18;;;;;;;26.23;59.43;98139.34;5108897;27;20408;-59
2021/06/28 05:15:00;;;;;;;16.15;12.95;;;;;;;26.56;57.41;98124.97;5105434;27;20137;-59
2021/06/28 05:17:36;;;;;;;13.80;12.40;;;;;;;26.95;56.49;98125.28;5108863;27;20151;-60
2021/06/28 05:20:14;;;;;;;14.95;12.93;;;;;;;26.97;57.09;98135.75;5170915;27;20133;-58
2021/06/28 05:22:51;;;;;;;14.52;12.90;;;;;;;26.80;56.51;98122.84;5108826;27;20411;-59
2021/06/28 05:25:28;;;;;;;15.23;13.73;;;;;;;26.59;57.71;98112.53;5108782;27;20137;-59
2021/06/28 05:28:04;;;;;;;17.08;13.30;;;;;;;26.47;57.77;98094.53;5108685;27;20135;-59
2021/06/28 05:30:41;;;;;;;16.13;13.73;;;;;;;26.56;57.52;98105.13;5109255;27;20147;-60
2021/06/28 05:33:18;;;;;;;16.00;13.63;;;;;;;26.68;56.36;98124.69;5108903;27;20545;-59
2021/06/28 05:35:54;;;;;;;14.52;13.13;;;;;;;26.84;56.92;98118.97;5108873;27;20143;-58
2021/06/28 05:38:32;;;;;;;21.27;13.27;;;;;;;27.17;56.58;98120.00;5108978;27;20407;-59
2021/06/28 05:41:09;;;;;;;17.63;13.82;;;;;;;27.08;55.60;98116.81;5108935;27;20129;-60
2021/06/28 05:43:46;;;;;;;17.40;14.10;;;;;;;27.16;56.10;98110.31;5068310;28;20138;-58
2021/06/28 05:46:27;;;;;;;16.80;14.23;;;;;;;27.02;55.91;98116.38;5064657;28;20407;-59
2021/06/28 05:49:11;;;;;;;15.95;14.35;;;;;;;27.08;55.38;98108.66;5108563;27;20449;-59
2021/06/28 05:51:48;;;;;;;19.20;14.45;;;;;;;26.98;55.94;98102.00;5068240;28;20138;-59
2021/06/28 05:54:25;;;;;;;15.95;14.00;;;;;;;27.21;55.95;98114.59;5109057;27;20137;-59
2021/06/28 05:57:02;;;;;;;16.70;14.80;;;;;;;27.46;54.78;98115.53;5109210;27;20521;-60
2021/06/28 05:59:40;;;;;;;15.23;13.82;;;;;;;27.58;54.61;98107.03;5108094;27;20407;-59
2021/06/28 06:02:18;;;;;;;19.02;14.73;;;;;;;27.89;53.79;98115.75;5108925;27;20145;-59
2021/06/28 06:04:59;;;;;;;15.38;13.93;;;;;;;27.94;53.40;98115.38;5088545;28;20886;-60
2021/06/28 06:07:38;;;;;;;16.48;14.10;;;;;;;27.89;53.72;98109.53;5109036;27;20411;-60
2021/06/28 06:10:16;;;;;;;18.52;14.93;;;;;;;27.52;55.20;98105.84;5101255;27;20696;-60
2021/06/28 06:12:54;;;;;;;15.70;14.10;;;;;;;27.29;55.65;98113.47;5067768;27;20399;-60
2021/06/28 06:15:31;;;;;;;17.27;15.48;;;;;;;27.02;56.35;98127.25;5067145;28;20615;-60
2021/06/28 06:18:08;;;;;;;17.70;15.40;;;;;;;26.95;56.21;98127.22;5106676;27;20191;-59
2021/06/28 06:20:46;;;;;;;18.23;16.10;;;;;;;26.82;55.96;98123.22;5107723;27;20408;-59
2021/06/28 06:23:24;;;;;;;18.65;15.27;;;;;;;27.00;56.00;98126.06;5087731;27;20382;-59
2021/06/28 06:26:00;;;;;;;18.27;15.48;;;;;;;27.03;56.44;98122.59;5101557;27;20144;-59
2021/06/28 06:28:37;;;;;;;19.05;15.15;;;;;;;27.24;56.02;98122.00;5067921;28;20168;-60
2021/06/28 06:31:13;;;;;;;18.30;16.50;;;;;;;27.10;56.49;98115.28;5107709;27;20434;-58
2021/06/28 06:33:50;;;;;;;18.48;16.58;;;;;;;26.99;56.47;98117.16;5107517;27;20602;-60
2021/06/28 06:36:27;;;;;;;18.45;15.95;;;;;;;26.96;56.89;98110.50;5108134;27;20606;-59
2021/06/28 06:39:03;;;;;;;22.42;16.30;;;;;;;26.99;56.26;98106.28;5066712;28;20139;-60
2021/06/28 06:41:44;;;;;;;17.92;15.80;;;;;;;26.76;57.90;98108.41;5105574;27;20434;-60
2021/06/28 06:44:22;;;;;;;20.10;18.10;;;;;;;26.91;56.91;98107.38;5022952;28;20364;-59
2021/06/28 06:47:00;;;;;;;20.40;18.25;;;;;;;26.78;57.15;98117.75;5085854;28;20137;-59
2021/06/28 06:49:38;;;;;;;20.00;17.05;;;;;;;26.57;58.00;98109.44;5147021;27;20134;-58
2021/06/28 06:52:17;;;;;;;20.88;18.20;;;;;;;26.55;58.37;98109.78;5087668;27;20179;-58
2021/06/28 06:54:55;;;;;;;19.98;17.88;;;;;;;26.53;58.63;98114.81;5106764;27;20185;-59
2021/06/28 06:57:33;;;;;;;19.05;17.15;;;;;;;26.50;58.99;98115.56;5107003;27;20420;-60
2021/06/28 07:00:17;;;;;;;18.70;16.75;;;;;;;26.67;58.75;98109.50;5091929;27;20125;-60
2021/06/28 07:02:55;;;;;;;23.27;18.30;;;;;;;26.70;57.56;98114.19;5106462;27;20404;-58
2021/06/28 07:05:33;;;;;;;20.83;18.35;;;;;;;26.76;58.04;98109.19;5057669;28;20150;-57
2021/06/28 07:08:10;;;;;;;22.88;18.70;;;;;;;26.64;58.56;98123.84;5107682;27;20923;-58
2021/06/28 07:10:46;;;;;;;21.00;17.63;;;;;;;26.77;58.35;98116.22;5107378;27;20140;-57
2021/06/28 07:13:23;;;;;;;20.65;17.45;;;;;;;26.80;58.16;98117.41;5107191;27;20129;-58
2021/06/28 07:16:00;;;;;;;19.80;17.73;;;;;;;26.84;58.04;98115.47;5067489;28;20197;-59
2021/06/28 07:18:36;;;;;;;21.52;19.38;;;;;;;26.78;58.42;98117.75;5105811;27;20132;-59
2021/06/28 07:21:13;;;;;;;24.05;18.35;;;;;;;26.77;58.83;98116.22;5105703;27;20414;-59
2021/06/28 07:23:52;;;;;;;20.00;17.83;;;;;;;27.13;57.66;98114.53;5106041;27;20129;-59
2021/06/28 07:26:30;;;;;;;20.25;18.13;;;;;;;27.32;57.98;98110.00;5107301;27;20400;-59
2021/06/28 07:29:07;;;;;;;20.05;17.95;;;;;;;27.47;57.33;98114.34;5106872;27;20922;-60
2021/06/28 07:31:44;;;;;;;21.48;19.17;;;;;;;27.57;57.34;98129.97;5106638;27;20620;-59
2021/06/28 07:34:22;;;;;;;25.33;18.63;;;;;;;27.72;56.75;98127.31;5106002;27;20418;-59
2021/06/28 07:36:59;;;;;;;21.08;18.05;;;;;;;27.73;56.60;98139.78;5064017;28;20131;-60
2021/06/28 07:39:37;;;;;;;22.80;19.90;;;;;;;27.65;55.86;98133.53;5105672;27;20400;-57
2021/06/28 07:42:15;;;;;;;23.65;19.85;;;;;;;27.56;56.63;98122.19;5148551;27;20393;-58
2021/06/28 07:44:53;;;;;;;21.33;18.77;;;;;;;27.60;57.16;98136.59;5106702;27;20715;-58
2021/06/28 07:47:30;;;;;;;24.80;19.33;;;;;;;27.80;56.92;98129.72;5105574;27;20406;-59
2021/06/28 07:50:08;;;;;;;21.55;19.15;;;;;;;27.90;56.22;98127.44;5106135;27;20135;-58
2021/06/28 07:52:45;;;;;;;22.02;19.40;;;;;;;28.19;56.41;98122.84;5107415;27;20408;-60
2021/06/28 07:55:23;;;;;;;24.63;19.23;;;;;;;28.31;55.58;98138.84;5105589;27;20388;-58
2021/06/28 07:58:00;;;;;;;24.67;19.88;;;;;;;28.43;54.49;98130.31;5107488;27;20139;-58
2021/06/28 08:00:37;;;;;;;27.67;20.42;;;;;;;28.38;55.05;98127.16;5147181;27;20127;-60
2021/06/28 08:03:15;;;;;;;26.25;21.40;;;;;;;28.18;55.43;98149.31;5067005;28;20417;-60
2021/06/28 08:05:51;;;;;;;21.77;19.48;;;;;;;28.30;55.79;98135.34;5107322;27;20159;-59
2021/06/28 08:08:28;;;;;;;25.92;20.33;;;;;;;28.36;55.00;98143.16;5107207;27;20156;-60
2021/06/28 08:11:07;;;;;;;30.60;21.75;;;;;;;28.33;54.95;98141.97;5066782;28;20150;-58
2021/06/28 08:13:47;;;;;;;23.88;19.83;;;;;;;28.85;53.45;98150.59;5107275;27;20418;-59
2021/06/28 08:16:24;;;;;;;29.00;25.98;;;;;;;29.02;52.90;98146.34;5105621;27;20600;-59
2021/06/28 08:19:01;;;;;;;24.10;20.05;;;;;;;29.22;52.92;98141.28;5106044;27;20140;-59
2021/06/28 08:21:38;;;;;;;24.63;19.88;;;;;;;29.32;52.43;98143.19;5098788;27;20137;-58
2021/06/28 08:24:16;;;;;;;26.73;20.30;;;;;;;29.36;53.09;98135.78;5105886;27;20400;-59
2021/06/28 08:26:54;;;;;;;25.58;20.30;;;;;;;29.42;53.15;98123.31;5106713;27;20412;-58
2021/06/28 08:29:43;;;;;;;23.20;20.85;;;;;;;29.44;52.43;98125.63;5065870;28;20405;-62
2021/06/28 08:32:20;;;;;;;24.50;20.33;;;;;;;29.53;52.62;98126.00;5107140;27;20388;-59
2021/06/28 08:34:59;;;;;;;23.27;20.80;;;;;;;29.24;53.33;98122.56;5006887;28;20148;-60
2021/06/28 08:37:37;;;;;;;27.27;22.08;;;;;;;29.13;53.27;98114.38;5106098;27;20385;-59
2021/06/28 08:40:13;;;;;;;25.58;21.38;;;;;;;29.23;52.98;98112.81;5107121;27;20129;-60
2021/06/28 08:42:51;;;;;;;30.10;22.13;;;;;;;29.14;53.52;98102.28;5107481;27;20125;-58
2021/06/28 08:45:17;;;;;;;25.08;21.45;;;;;;;29.13;54.06;98108.16;5106426;28;20040;-60
2021/06/28 08:47:54;;;;;;;24.15;21.27;;;;;;;29.02;53.61;98099.19;5108036;27;20339;-59
2021/06/28 08:50:34;;;;;;;26.23;21.58;;;;;;;29.08;54.20;98092.97;5106616;27;20406;-59
2021/06/28 08:53:09;;;;;;;27.27;21.92;;;;;;;28.97;54.31;98073.88;5101123;27;1412178;-59
2021/06/28 08:55:47;;;;;;;25.20;21.15;;;;;;;28.81;55.08;98065.31;5104777;27;20395;-59
2021/06/28 08:58:26;;;;;;;24.00;20.52;;;;;;;28.87;54.79;98073.88;5105901;27;20125;-60
2021/06/28 09:01:07;;;;;;;24.45;21.88;;;;;;;28.87;54.65;98066.47;5106121;27;20789;-59
2021/06/28 09:03:44;;;;;;;24.98;21.48;;;;;;;28.87;55.73;98054.78;5067631;28;20403;-60
2021/06/28 09:06:28;;;;;;;29.05;22.02;;;;;;;28.85;55.04;98046.19;5107591;27;20143;-60
2021/06/28 09:09:09;;;;;;;30.45;22.35;;;;;;;28.97;54.46;98043.06;5105951;27;20407;-58
2021/06/28 09:11:51;;;;;;;26.65;23.20;;;;;;;28.88;55.03;98043.47;5105731;27;20415;-59
2021/06/28 09:14:28;;;;;;;25.40;21.70;;;;;;;29.13;55.70;98038.00;5105654;27;20969;-59
2021/06/28 09:17:05;;;;;;;24.90;22.20;;;;;;;29.17;53.97;98024.34;5067328;28;20414;-59
2021/06/28 09:19:42;;;;;;;26.27;23.42;;;;;;;29.19;54.28;98030.97;5107250;27;20606;-60
2021/06/28 09:22:29;;;;;;;27.30;22.35;;;;;;;29.32;53.47;98030.53;5006690;28;20137;-59
2021/06/28 09:25:08;;;;;;;27.80;23.98;;;;;;;29.38;53.35;98016.06;5107432;27;20388;-59
2021/06/28 09:27:46;;;;;;;27.83;24.13;;;;;;;29.30;53.42;98020.03;5108412;27;20401;-59
2021/06/28 09:30:23;;;;;;;25.55;22.33;;;;;;;29.61;52.95;98031.97;5108627;27;20133;-59
2021/06/28 09:33:02;;;;;;;29.52;23.83;;;;;;;29.82;52.08;98022.91;5108353;27;20384;-59
2021/06/28 09:35:40;;;;;;;30.38;23.20;;;;;;;29.92;52.22;98029.50;5108177;27;20400;-59
2021/06/28 09:38:39;;;;;;;30.08;23.85;;;;;;;30.04;52.07;98020.06;5048906;28;20408;-60
2021/06/28 09:41:30;;;;;;;25.38;22.65;;;;;;;30.02;51.92;98014.97;5108614;27;20388;-60
2021/06/28 09:44:09;;;;;;;27.02;23.73;;;;;;;29.96;52.20;98024.00;5068138;28;20407;-59
2021/06/28 09:46:46;;;;;;;26.65;22.20;;;;;;;29.93;52.71;98050.16;5108727;27;20770;-60
2021/06/28 09:49:23;;;;;;;26.38;23.25;;;;;;;29.70;52.08;98061.59;5068094;28;20357;-59
2021/06/28 09:52:04;;;;;;;27.92;23.35;;;;;;;29.46;53.54;98068.69;5108461;27;20359;-58
2021/06/28 09:55:35;;;;;;;29.58;23.38;;;;;;;29.09;54.65;98069.97;5129974;27;20408;-58
2021/06/28 09:58:25;;;;;;;31.60;24.92;;;;;;;28.96;54.46;98055.94;5129481;27;20893;-59
2021/06/28 10:01:23;;;;;;;30.92;24.98;;;;;;;28.94;54.96;98022.03;5088091;27;20403;-60
2021/06/28 10:04:42;;;;;;;27.50;24.15;;;;;;;28.84;55.41;98009.19;5130437;27;20404;-59
2021/06/28 10:07:38;;;;;;;31.70;23.92;;;;;;;28.70;55.19;98042.72;5088179;27;20754;-59
2021/06/28 10:10:32;;;;;;;32.83;22.92;;;;;;;28.58;57.08;98065.69;5088495;27;20439;-58
2021/06/28 10:13:26;;;;;;;24.83;22.17;;;;;;;28.11;58.83;98077.69;5088312;28;20821;-59
2021/06/28 10:16:22;;;;;;;24.55;21.38;;;;;;;27.74;60.22;98084.94;5104133;27;20429;-57
2021/06/28 10:19:17;;;;;;;27.00;20.70;;;;;;;27.50;61.52;98150.91;5191645;27;20535;-58
2021/06/28 10:22:14;;;;;;;23.27;10.43;;;;;;;26.89;56.86;98134.16;5108764;27;20113;-59
2021/06/28 10:25:07;;;;;;;16.48;6.22;;;;;;;25.81;60.37;98114.00;5129575;27;20354;-57
2021/06/28 10:28:12;;;;;;;11.10;5.70;;;;;;;24.56;64.79;98117.59;5130432;27;20452;-59
2021/06/28 10:31:15;;;;;;;11.88;5.38;;;;;;;23.83;69.56;98140.94;5117033;27;20422;-59
2021/06/28 10:34:13;;;;;;;12.95;6.03;;;;;;;23.08;75.08;98196.00;5191565;27;20528;-59
2021/06/28 10:37:32;;;;;;;12.00;7.25;;;;;;;22.62;80.77;98245.00;5142075;27;20414;-59
2021/06/28 10:40:53;;;;;;;19.48;8.43;;;;;;;21.78;80.28;98226.00;5130375;27;20443;-58
2021/06/28 10:43:44;;;;;;;20.13;10.18;;;;;;;21.46;85.24;98204.22;5089521;27;20421;-59
2021/06/28 10:46:31;;;;;;;15.13;10.88;;;;;;;21.32;87.19;98169.50;5128747;27;20373;-59
2021/06/28 10:49:10;;;;;;;13.35;9.48;;;;;;;21.00;86.81;98165.81;5067817;28;20768;-58
2021/06/28 10:51:50;;;;;;;11.52;8.43;;;;;;;20.94;87.89;98175.22;5108531;27;20396;-58
2021/06/28 10:54:35;;;;;;;11.57;7.10;;;;;;;20.87;87.68;98148.81;5108837;28;20169;-59
2021/06/28 10:57:20;;;;;;;9.05;6.47;;;;;;;20.87;86.99;98140.75;5096600;28;20047;-59
2021/06/28 11:00:08;;;;;;;9.13;5.15;;;;;;;20.73;87.53;98144.88;5089614;28;20047;-59
2021/06/28 11:02:52;;;;;;;7.20;4.80;;;;;;;20.61;86.10;98135.66;5106663;28;20051;-58
2021/06/28 11:05:38;;;;;;;9.13;5.28;;;;;;;20.65;87.72;98122.34;5103450;28;20070;-58
2021/06/28 11:08:22;;;;;;;11.13;5.40;;;;;;;20.74;87.70;98090.69;5092553;28;20611;-59
2021/06/28 11:11:07;;;;;;;6.88;4.78;;;;;;;20.69;86.70;98055.91;5104243;28;20055;-58
2021/06/28 11:13:54;;;;;;;6.22;4.65;;;;;;;20.49;84.19;98029.84;5106986;28;20104;-59
2021/06/28 11:16:40;;;;;;;7.47;5.10;;;;;;;20.57;86.18;98004.75;5104265;28;20143;-58
2021/06/28 11:19:45;;;;;;;4.80;4.30;;;;;;;20.59;82.32;98000.63;5104623;28;20614;-60
2021/06/28 11:22:49;;;;;;;7.30;5.00;;;;;;;20.51;81.26;98006.84;5105075;28;20058;-59
2021/06/28 11:25:21;;;;;;;6.53;5.57;;;;;;;20.50;82.39;97993.72;5104962;28;20425;-58
2021/06/28 11:28:14;;;;;;;6.80;5.65;;;;;;;20.53;81.90;98006.53;5084820;27;20409;-58
2021/06/28 11:31:13;;;;;;;9.27;6.80;;;;;;;20.58;82.84;98014.41;5086007;27;20769;-59
2021/06/28 11:34:09;;;;;;;7.65;5.70;;;;;;;20.61;81.44;98017.19;5147293;27;20243;-58
2021/06/28 11:36:37;;;;;;;9.10;5.70;;;;;;;20.66;81.38;98021.59;5091150;28;20127;-59
2021/06/28 11:39:25;;;;;;;7.88;5.28;;;;;;;20.69;80.19;98023.59;5104290;28;20043;-59
2021/06/28 11:42:22;;;;;;;8.00;5.40;;;;;;;20.75;80.55;98030.31;5043730;28;20429;-59
2021/06/28 11:45:13;;;;;;;8.20;5.90;;;;;;;20.81;79.69;98030.88;5085308;27;20418;-58
2021/06/28 11:48:07;;;;;;;10.43;6.07;;;;;;;20.91;80.25;98041.19;5127028;27;20353;-58
2021/06/28 11:51:19;;;;;;;9.27;6.07;;;;;;;21.04;80.25;98037.38;5113535;27;20458;-58
2021/06/28 11:54:16;;;;;;;10.23;5.80;;;;;;;21.20;80.99;98029.38;5086278;27;20449;-57
2021/06/28 11:57:10;;;;;;;10.40;6.45;;;;;;;21.31;78.72;98035.84;5166918;27;20404;-58
2021/06/28 12:00:09;;;;;;;12.75;7.18;;;;;;;21.42;78.99;98032.72;5143641;27;20143;-58
2021/06/28 12:03:17;;;;;;;8.60;6.47;;;;;;;21.57;78.89;98031.22;5116479;27;21004;-56
2021/06/28 12:06:12;;;;;;;8.70;6.88;;;;;;;21.71;78.08;98045.09;5046271;28;20407;-58
2021/06/28 12:09:17;;;;;;;10.93;8.15;;;;;;;21.84;77.72;98062.78;5106828;27;20350;-58